Time;durP1;ratioP1;P1;durP2;ratioP2;P2;SDS_P1;SDS_P2;PMS_P1;PMS_P2;Temp;Humidity;BMP_temperature;BMP_pressure;BME280_temperature;BME280_humidity;BME280_pressure;Samples;Min_cycle;Max_cycle;Signal;HPM_P1;HPM_P2
2022/10/22 00:00:45;;;;;;;;;5.75;3.00;;;;;15.12;80.25;100794.81;4952161;28;8838;-68
2022/10/22 00:03:11;;;;;;;;;4.00;3.00;;;;;15.13;80.25;100795.66;4952335;28;8869;-69
2022/10/22 00:05:38;;;;;;;;;4.50;3.00;;;;;15.11;80.47;100792.31;4962502;28;8848;-69
2022/10/22 00:08:05;;;;;;;;;2.25;2.25;;;;;15.09;80.37;100787.97;4971548;28;8840;-66
2022/10/22 00:10:31;;;;;;;;;4.00;2.00;;;;;15.11;80.37;100786.91;4971108;28;8848;-66
2022/10/22 00:12:57;;;;;;;;;2.00;2.00;;;;;15.07;80.59;100784.66;4971524;28;8856;-67
2022/10/22 00:15:24;;;;;;;;;4.50;4.00;;;;;15.06;80.64;100793.00;4971424;28;8846;-66
2022/10/22 00:17:50;;;;;;;;;3.75;2.00;;;;;15.07;80.50;100783.84;4971433;28;8844;-66
2022/10/22 00:20:17;;;;;;;;;5.75;5.00;;;;;15.05;80.66;100786.75;4955737;28;8847;-65
2022/10/22 00:22:43;;;;;;;;;5.00;5.00;;;;;15.06;80.65;100787.59;4951976;28;8858;-68
2022/10/22 00:25:10;;;;;;;;;4.50;4.50;;;;;15.06;80.57;100790.28;4951891;28;8881;-66
2022/10/22 00:27:36;;;;;;;;;2.50;2.50;;;;;15.04;80.49;100793.25;4952395;28;8839;-66
2022/10/22 00:30:03;;;;;;;;;3.50;2.00;;;;;15.04;81.02;100795.94;4966579;28;8863;-68
2022/10/22 00:32:30;;;;;;;;;5.00;3.50;;;;;15.04;80.83;100795.13;4952091;28;8946;-68
2022/10/22 00:34:56;;;;;;;;;2.00;2.00;;;;;15.04;80.42;100793.25;4951933;29;8839;-68
2022/10/22 00:37:23;;;;;;;;;2.00;2.00;;;;;15.04;80.65;100795.94;4951962;28;8843;-69
2022/10/22 00:39:49;;;;;;;;;1.67;1.67;;;;;15.04;81.01;100797.84;4952202;28;8850;-68
2022/10/22 00:42:18;;;;;;;;;2.50;2.00;;;;;15.05;80.65;100797.59;4952040;28;8927;-69
2022/10/22 00:45:10;;;;;;;;;3.00;3.00;;;;;15.03;80.97;100799.72;4951832;28;8855;-69
2022/10/22 00:47:40;;;;;;;;;2.00;2.00;;;;;14.98;81.00;100794.13;4951759;28;8862;-69
2022/10/22 00:50:12;;;;;;;;;3.00;3.00;;;;;14.99;81.09;100797.66;4952019;28;8831;-68
2022/10/22 00:52:38;;;;;;;;;4.25;2.00;;;;;15.03;80.97;100807.03;4971233;28;8848;-69
2022/10/22 00:55:06;;;;;;;;;3.50;3.50;;;;;15.05;80.96;100810.31;4971049;28;8836;-68
2022/10/22 00:57:34;;;;;;;;;4.50;3.00;;;;;15.04;81.31;100798.66;4971099;28;8864;-69
2022/10/22 01:00:01;;;;;;;;;2.50;2.50;;;;;15.06;80.70;100801.97;4970741;28;8852;-69
2022/10/22 01:02:27;;;;;;;;;2.25;2.00;;;;;15.06;80.93;100807.38;4971035;28;8844;-69
2022/10/22 01:04:53;;;;;;;;;5.00;2.75;;;;;15.08;80.80;100816.13;4969439;28;8840;-69
2022/10/22 01:07:23;;;;;;;;;3.00;3.00;;;;;15.09;81.09;100814.25;4989800;28;9658;-69
2022/10/22 01:10:01;;;;;;;;;1.50;1.50;;;;;15.11;80.76;100822.16;4974526;28;8854;-68
2022/10/22 01:12:46;;;;;;;;;1.25;1.00;;;;;15.12;80.58;100821.13;4975099;28;8870;-68
2022/10/22 01:15:25;;;;;;;;;2.50;1.25;;;;;15.14;80.63;100827.94;4974588;28;9567;-67
2022/10/22 01:18:09;;;;;;;;;3.00;2.75;;;;;15.12;80.47;100818.41;4970987;28;8846;-67
2022/10/22 01:21:07;;;;;;;;;3.75;1.00;;;;;15.10;80.79;100824.03;4955127;28;8873;-68
2022/10/22 01:23:59;;;;;;;;;2.00;2.00;;;;;15.08;80.68;100815.31;4955099;28;8867;-68
2022/10/22 01:26:59;;;;;;;;;2.00;2.00;;;;;15.08;80.60;100820.72;4955291;28;8850;-67
2022/10/22 01:29:37;;;;;;;;;4.75;3.25;;;;;15.06;80.62;100811.97;4954611;28;8869;-68
2022/10/22 01:32:09;;;;;;;;;3.00;2.75;;;;;15.06;80.56;100811.97;4959601;28;9552;-66
2022/10/22 01:34:40;;;;;;;;;4.50;3.25;;;;;15.04;80.90;100814.94;4974230;28;8860;-68
2022/10/22 01:37:09;;;;;;;;;2.00;2.00;;;;;15.05;81.06;100811.16;4974311;28;8847;-68
2022/10/22 01:39:39;;;;;;;;;3.00;2.00;;;;;15.10;80.54;100807.75;4973991;28;8966;-66
2022/10/22 01:42:05;;;;;;;;;5.25;3.00;;;;;15.10;80.73;100807.75;4974082;28;8902;-68
2022/10/22 01:44:36;;;;;;;;;1.00;1.00;;;;;15.13;80.21;100817.34;4973893;28;8843;-67
2022/10/22 01:47:21;;;;;;;;;4.00;4.00;;;;;15.11;80.38;100809.44;4967502;28;8863;-68
2022/10/22 01:50:02;;;;;;;;;2.00;1.00;;;;;15.11;80.23;100809.44;4954388;28;8831;-68
2022/10/22 01:52:52;;;;;;;;;1.00;1.00;;;;;15.14;80.21;100802.72;4955849;28;9642;-68
2022/10/22 01:55:55;;;;;;;;;1.00;1.00;;;;;15.12;80.29;100800.25;4954698;28;8839;-67
2022/10/22 01:58:28;;;;;;;;;2.50;1.50;;;;;15.14;80.40;100808.97;4943491;28;8855;-68
2022/10/22 02:01:03;;;;;;;;;2.25;2.25;;;;;15.14;80.31;100800.00;4955237;28;8819;-68
2022/10/22 02:03:41;;;;;;;;;4.50;2.00;;;;;15.16;79.72;100795.22;4954574;28;8997;-68
2022/10/22 02:06:16;;;;;;;;;2.00;2.00;;;;;15.16;79.97;100801.47;4958458;28;8840;-68
2022/10/22 02:08:43;;;;;;;;;1.75;1.75;;;;;15.15;80.10;100797.09;4973875;28;8847;-68
2022/10/22 02:11:12;;;;;;;;;1.00;1.00;;;;;15.16;80.13;100798.75;4973529;28;8844;-67
2022/10/22 02:13:43;;;;;;;;;1.25;1.00;;;;;15.14;79.92;100806.25;4973722;28;8840;-66
2022/10/22 02:16:15;;;;;;;;;2.25;2.00;;;;;15.11;79.58;100800.44;4973572;28;9245;-67
2022/10/22 02:18:45;;;;;;;;;2.75;2.75;;;;;15.10;79.98;100799.63;4971771;28;8832;-67
2022/10/22 02:21:12;;;;;;;;;3.00;2.00;;;;;15.10;79.70;100796.91;4973229;28;8832;-68
2022/10/22 02:23:38;;;;;;;;;2.00;1.00;;;;;15.08;79.57;100794.44;4973450;28;8847;-69
2022/10/22 02:26:14;;;;;;;;;1.75;1.75;;;;;15.10;79.48;100802.34;4973340;28;8828;-68
2022/10/22 02:28:53;;;;;;;;;1.00;1.00;;;;;15.08;79.61;100804.47;4973466;28;8878;-69
2022/10/22 02:31:25;;;;;;;;;3.00;2.00;;;;;15.06;79.83;100804.66;4973177;28;8836;-69
2022/10/22 02:33:56;;;;;;;;;5.00;2.00;;;;;15.03;79.64;100793.47;4962263;28;8839;-68
2022/10/22 02:36:23;;;;;;;;;2.00;2.00;;;;;14.99;79.88;100800.38;4953930;28;8843;-69
2022/10/22 02:38:51;;;;;;;;;2.50;1.75;;;;;15.03;78.98;100798.91;4953868;28;8850;-67
2022/10/22 02:41:19;;;;;;;;;3.00;2.00;;;;;14.99;79.52;100800.38;4953544;28;8889;-69
2022/10/22 02:43:53;;;;;;;;;3.00;3.00;;;;;14.96;79.72;100796.25;4953511;28;8858;-69
2022/10/22 02:46:20;;;;;;;;;2.00;2.00;;;;;15.01;79.38;100799.09;4953798;28;8842;-69
2022/10/22 02:48:47;;;;;;;;;2.50;2.50;;;;;14.93;79.40;100801.28;4965471;28;8832;-69
2022/10/22 02:51:13;;;;;;;;;4.75;2.50;;;;;14.91;79.32;100803.38;4972701;28;8844;-65
2022/10/22 02:53:40;;;;;;;;;2.75;2.00;;;;;14.91;79.50;100803.38;4972827;28;8844;-67
2022/10/22 02:56:07;;;;;;;;;3.25;3.25;;;;;14.90;79.44;100801.72;4959276;28;8831;-65
2022/10/22 02:58:34;;;;;;;;;4.25;3.50;;;;;14.94;79.69;100806.47;4953504;28;8922;-66
2022/10/22 03:01:00;;;;;;;;;2.50;2.50;;;;;14.94;79.20;100805.63;4953132;28;8862;-66
2022/10/22 03:03:27;;;;;;;;;3.00;3.00;;;;;14.94;79.22;100802.94;4970044;28;8975;-65
2022/10/22 03:05:53;;;;;;;;;2.75;2.75;;;;;14.91;79.05;100808.78;4972689;28;8859;-66
2022/10/22 03:08:19;;;;;;;;;3.00;3.00;;;;;14.91;79.11;100806.94;4972584;28;8833;-65
2022/10/22 03:10:46;;;;;;;;;4.00;4.00;;;;;14.89;79.20;100814.44;4972311;28;8849;-65
2022/10/22 03:13:12;;;;;;;;;2.00;2.00;;;;;14.92;79.60;100805.06;4972475;28;8836;-67
2022/10/22 03:15:39;;;;;;;;;2.00;2.00;;;;;14.93;79.57;100802.09;4972417;28;8848;-65
2022/10/22 03:18:05;;;;;;;;;6.00;4.00;;;;;14.86;79.51;100798.63;4956377;28;8854;-67
2022/10/22 03:20:31;;;;;;;;;1.25;1.25;;;;;14.88;79.31;100803.84;4953100;28;8839;-66
2022/10/22 03:23:00;;;;;;;;;2.00;2.00;;;;;14.84;79.13;100803.44;4953145;28;8830;-67
2022/10/22 03:25:27;;;;;;;;;4.50;2.00;;;;;14.86;79.47;100809.47;4952885;28;8870;-67
2022/10/22 03:27:59;;;;;;;;;2.00;2.00;;;;;14.87;79.40;100804.88;4952571;28;9625;-67
2022/10/22 03:30:26;;;;;;;;;2.25;2.25;;;;;14.83;79.56;100805.34;4954763;28;8856;-67
2022/10/22 03:32:52;;;;;;;;;3.50;3.50;;;;;14.81;79.52;100812.03;4972263;28;8828;-67
2022/10/22 03:35:19;;;;;;;;;3.25;1.75;;;;;14.81;79.37;100803.91;4972120;28;8844;-65
2022/10/22 03:37:45;;;;;;;;;2.67;2.00;;;;;14.80;79.45;100804.94;4972356;28;9559;-65
2022/10/22 03:40:12;;;;;;;;;4.00;4.00;;;;;14.77;79.41;100808.09;4972074;28;8932;-65
2022/10/22 03:42:40;;;;;;;;;2.00;2.00;;;;;14.77;79.73;100814.34;4972118;28;8931;-66
2022/10/22 03:45:07;;;;;;;;;2.00;2.00;;;;;14.77;79.28;100808.94;4970459;28;8866;-64
2022/10/22 03:47:35;;;;;;;;;4.00;3.00;;;;;14.73;79.40;100809.59;4952659;28;8849;-66
2022/10/22 03:50:04;;;;;;;;;2.75;2.75;;;;;14.73;79.56;100815.84;4952427;28;8870;-64
2022/10/22 03:52:38;;;;;;;;;3.75;3.75;;;;;14.72;79.54;100826.91;4952861;28;8850;-65
2022/10/22 03:55:06;;;;;;;;;3.00;3.00;;;;;14.70;79.88;100826.28;4952488;28;9574;-68
2022/10/22 03:57:33;;;;;;;;;1.00;1.00;;;;;14.71;80.06;100822.56;4952355;28;8839;-68
2022/10/22 03:59:59;;;;;;;;;3.00;3.00;;;;;14.67;79.59;100830.28;4953218;28;8838;-68
2022/10/22 04:02:26;;;;;;;;;6.00;6.00;;;;;14.63;79.63;100833.66;4952418;28;8913;-67
2022/10/22 04:04:52;;;;;;;;;5.00;2.00;;;;;14.63;79.88;100831.78;4952102;28;9609;-67
2022/10/22 04:07:18;;;;;;;;;5.25;3.25;;;;;14.58;79.92;100840.56;4952403;28;8972;-68
2022/10/22 04:09:45;;;;;;;;;2.50;2.25;;;;;14.57;79.95;100840.78;4952020;28;8834;-67
2022/10/22 04:12:11;;;;;;;;;5.00;4.25;;;;;14.58;79.65;100842.44;4952183;28;8855;-67
2022/10/22 04:14:37;;;;;;;;;3.00;2.00;;;;;14.56;80.14;100839.13;4963398;28;8829;-68
2022/10/22 04:17:04;;;;;;;;;3.50;3.00;;;;;14.56;80.33;100842.66;4971448;28;8918;-67
2022/10/22 04:19:30;;;;;;;;;5.25;3.75;;;;;14.58;80.42;100842.44;4971158;28;8836;-67
2022/10/22 04:21:58;;;;;;;;;3.25;3.25;;;;;14.59;80.18;100844.94;4971624;28;8844;-66
2022/10/22 04:24:25;;;;;;;;;3.25;2.25;;;;;14.58;79.96;100847.84;4971226;28;8888;-67
2022/10/22 04:26:55;;;;;;;;;2.75;2.25;;;;;14.56;80.25;100858.91;4971523;28;10021;-68
2022/10/22 04:29:22;;;;;;;;;6.75;4.25;;;;;14.54;80.11;100857.47;4953959;28;8878;-69
2022/10/22 04:31:48;;;;;;;;;3.50;3.50;;;;;14.52;80.43;100854.16;4952098;28;8855;-68
2022/10/22 04:34:15;;;;;;;;;4.50;2.00;;;;;14.52;80.27;100854.16;4952074;28;8949;-69
2022/10/22 04:36:41;;;;;;;;;4.50;4.50;;;;;14.47;80.27;100846.66;4952204;28;8838;-69
2022/10/22 04:39:08;;;;;;;;;3.00;3.00;;;;;14.50;80.35;100856.25;4951942;28;8850;-69
2022/10/22 04:41:36;;;;;;;;;2.00;2.00;;;;;14.55;80.78;100854.56;4954776;28;8858;-65
2022/10/22 04:44:04;;;;;;;;;6.75;5.00;;;;;14.52;80.23;100855.00;4972020;28;9572;-67
2022/10/22 04:46:33;;;;;;;;;2.50;2.50;;;;;14.56;80.29;100847.25;4975220;28;9638;-66
2022/10/22 04:48:59;;;;;;;;;3.00;2.50;;;;;14.57;80.50;100844.31;4975416;28;8863;-65
2022/10/22 04:51:26;;;;;;;;;1.50;1.50;;;;;14.57;80.06;100847.03;4956569;28;8851;-66
2022/10/22 04:53:53;;;;;;;;;3.00;3.00;;;;;14.57;79.95;100846.19;4955388;28;8854;-66
2022/10/22 04:56:21;;;;;;;;;3.00;3.00;;;;;14.58;80.17;100850.56;4957767;28;8886;-65
2022/10/22 04:58:50;;;;;;;;;3.50;2.00;;;;;14.58;80.00;100853.25;4975064;28;8832;-69
2022/10/22 05:01:19;;;;;;;;;6.00;5.00;;;;;14.55;80.32;100853.72;4974669;28;8922;-68
2022/10/22 05:03:51;;;;;;;;;2.50;2.50;;;;;14.59;80.30;100854.94;4974554;28;9010;-68
2022/10/22 05:06:19;;;;;;;;;1.50;1.50;;;;;14.62;79.86;100859.06;5012185;23;8868;-64
2022/10/22 05:08:46;;;;;;;;;2.00;2.00;;;;;14.58;79.70;100864.09;4973640;28;9579;-65
2022/10/22 05:11:22;;;;;;;;;6.00;4.25;;;;;14.58;80.09;100861.41;4972252;28;8924;-65
2022/10/22 05:13:48;;;;;;;;;5.75;3.00;;;;;14.55;79.77;100861.84;4967012;28;8843;-65
2022/10/22 05:16:15;;;;;;;;;4.25;3.75;;;;;14.54;79.82;100869.16;4955671;28;8839;-65
2022/10/22 05:18:43;;;;;;;;;3.00;3.00;;;;;14.54;80.06;100866.44;4955086;28;8870;-62
2022/10/22 05:21:14;;;;;;;;;2.33;2.33;;;;;14.48;80.00;100864.56;4955129;28;8893;-64
2022/10/22 05:23:40;;;;;;;;;4.25;2.00;;;;;14.49;80.01;100871.66;4955229;28;8921;-65
2022/10/22 05:26:09;;;;;;;;;7.33;3.00;;;;;14.49;80.31;100865.44;4961080;28;8847;-66
2022/10/22 05:28:36;;;;;;;;;8.33;4.67;;;;;14.47;80.28;100867.50;4955238;28;8990;-67
2022/10/22 05:31:04;;;;;;;;;2.00;2.00;;;;;14.51;80.31;100866.88;4955011;28;8995;-65
2022/10/22 05:33:32;;;;;;;;;5.33;4.00;;;;;14.47;80.23;100875.63;4953718;28;8854;-65
2022/10/22 05:36:01;;;;;;;;;3.00;3.00;;;;;14.45;80.00;100875.00;4955008;28;8988;-65
2022/10/22 05:38:27;;;;;;;;;2.50;2.50;;;;;14.40;80.09;100877.56;4955181;28;9603;-65
2022/10/22 05:41:02;;;;;;;;;5.00;3.75;;;;;14.38;80.88;100885.06;4964484;28;8848;-65
2022/10/22 05:43:28;;;;;;;;;7.00;4.33;;;;;14.30;80.58;100884.28;4972945;28;8862;-63
2022/10/22 05:45:55;;;;;;;;;2.00;2.00;;;;;14.31;80.61;100885.13;4973827;28;9175;-65
2022/10/22 05:48:22;;;;;;;;;3.00;3.00;;;;;14.32;80.90;100887.59;4974117;28;8952;-65
2022/10/22 05:50:49;;;;;;;;;3.75;3.75;;;;;14.31;80.54;100885.13;4973481;28;9559;-65
2022/10/22 05:53:18;;;;;;;;;2.00;2.00;;;;;14.33;81.13;100889.25;4973947;28;8840;-65
2022/10/22 05:55:45;;;;;;;;;5.00;3.00;;;;;14.35;80.95;100886.34;4972279;28;8941;-64
2022/10/22 05:58:12;;;;;;;;;5.00;3.50;;;;;14.29;80.62;100896.13;4973765;28;8942;-65
2022/10/22 06:00:39;;;;;;;;;3.33;3.33;;;;;14.30;80.95;100899.66;4973629;28;9581;-64
2022/10/22 06:03:06;;;;;;;;;6.33;5.00;;;;;14.28;80.61;100899.91;4957369;28;8916;-65
2022/10/22 06:05:36;;;;;;;;;4.67;4.00;;;;;14.25;80.53;100902.22;4954278;28;9085;-65
2022/10/22 06:08:03;;;;;;;;;4.00;3.25;;;;;14.24;80.97;100895.97;4954588;28;8938;-64
2022/10/22 06:10:30;;;;;;;;;3.00;3.00;;;;;14.27;80.72;100905.53;4969426;28;8982;-65
2022/10/22 06:12:56;;;;;;;;;3.00;3.00;;;;;14.26;80.72;100907.44;4954318;28;8839;-65
2022/10/22 06:15:23;;;;;;;;;2.00;2.00;;;;;14.29;80.96;100912.38;4954322;28;8938;-65
2022/10/22 06:17:49;;;;;;;;;3.00;3.00;;;;;14.28;80.86;100913.44;4969071;28;9566;-65
2022/10/22 06:20:16;;;;;;;;;1.25;1.25;;;;;14.30;81.00;100930.31;4953960;28;8855;-65
2022/10/22 06:22:42;;;;;;;;;2.00;1.00;;;;;14.31;80.71;100920.31;4954146;28;8853;-65
2022/10/22 06:25:09;;;;;;;;;3.00;3.00;;;;;14.32;80.79;100921.97;4956386;28;8850;-65
2022/10/22 06:27:36;;;;;;;;;5.00;5.00;;;;;14.32;80.92;100920.09;4973209;28;8840;-66
2022/10/22 06:30:03;;;;;;;;;4.33;3.00;;;;;14.29;81.04;100915.09;4973119;28;8925;-65
2022/10/22 06:32:29;;;;;;;;;5.00;3.50;;;;;14.27;80.94;100919.09;4973161;28;8929;-66
2022/10/22 06:34:55;;;;;;;;;2.50;2.25;;;;;14.30;80.94;100929.47;4971838;28;8866;-66
2022/10/22 06:37:22;;;;;;;;;2.00;2.00;;;;;14.30;80.66;100937.59;4973171;28;8970;-65
2022/10/22 06:39:48;;;;;;;;;2.75;2.75;;;;;14.33;80.95;100942.56;4965263;28;8835;-66
2022/10/22 06:42:15;;;;;;;;;4.50;4.50;;;;;14.30;80.72;100945.72;4968612;28;8873;-66
2022/10/22 06:44:44;;;;;;;;;3.00;3.00;;;;;14.33;81.05;100948.81;4968483;28;8850;-65
2022/10/22 06:47:11;;;;;;;;;3.75;3.75;;;;;14.33;80.90;100954.22;4953946;28;8843;-66
2022/10/22 06:49:37;;;;;;;;;5.00;3.25;;;;;14.35;80.63;100952.16;4965113;28;8824;-66
2022/10/22 06:52:04;;;;;;;;;3.50;3.00;;;;;14.34;80.96;100953.22;4972195;28;8850;-65
2022/10/22 06:54:30;;;;;;;;;4.00;4.00;;;;;14.37;81.09;100949.22;4970714;28;8848;-63
2022/10/22 06:56:56;;;;;;;;;2.75;2.75;;;;;14.38;80.38;100960.88;4971551;28;8824;-65
2022/10/22 06:59:23;;;;;;;;;3.00;3.00;;;;;14.39;80.33;100957.97;4972067;28;9573;-66
2022/10/22 07:01:49;;;;;;;;;4.50;3.00;;;;;14.38;80.59;100960.88;4985564;28;8859;-66
2022/10/22 07:04:16;;;;;;;;;2.00;2.00;;;;;14.41;80.52;100961.28;4986725;28;8875;-64
2022/10/22 07:06:42;;;;;;;;;3.00;3.00;;;;;14.40;80.44;100970.47;4972423;28;8921;-66
2022/10/22 07:09:08;;;;;;;;;4.00;2.00;;;;;14.41;80.74;100974.00;4972039;28;8847;-65
2022/10/22 07:11:44;;;;;;;;;7.00;3.00;;;;;14.39;80.56;100973.41;4972465;28;8846;-66
2022/10/22 07:14:12;;;;;;;;;6.00;2.50;;;;;14.42;80.71;100987.34;4972695;28;8923;-66
2022/10/22 07:16:41;;;;;;;;;2.00;2.00;;;;;14.48;80.82;100985.63;4972447;28;8848;-65
2022/10/22 07:19:08;;;;;;;;;6.25;4.25;;;;;14.45;80.28;100984.19;4972643;28;8866;-66
2022/10/22 07:21:34;;;;;;;;;4.00;4.00;;;;;14.47;79.96;100982.09;4972205;28;9539;-65
2022/10/22 07:24:01;;;;;;;;;3.50;2.25;;;;;14.47;80.47;100990.22;4954671;28;8843;-66
2022/10/22 07:26:31;;;;;;;;;3.00;3.00;;;;;14.46;80.54;100990.41;4953355;28;9620;-65
2022/10/22 07:29:01;;;;;;;;;3.50;2.75;;;;;14.46;80.43;100993.13;4953260;28;8835;-65
2022/10/22 07:31:28;;;;;;;;;2.00;2.00;;;;;14.50;80.63;100997.09;4967883;28;8863;-66
2022/10/22 07:33:55;;;;;;;;;4.75;3.25;;;;;14.46;80.25;100990.41;4968157;28;8857;-66
2022/10/22 07:36:22;;;;;;;;;4.00;3.00;;;;;14.47;80.53;101002.94;4957078;28;8848;-64
2022/10/22 07:38:54;;;;;;;;;4.00;2.25;;;;;14.51;80.55;101009.63;4972547;28;8828;-66
2022/10/22 07:41:20;;;;;;;;;3.33;3.33;;;;;14.49;80.49;101017.94;4972110;28;8951;-65
2022/10/22 07:43:47;;;;;;;;;4.00;4.00;;;;;14.52;80.46;101011.28;4971997;28;8933;-65
2022/10/22 07:46:13;;;;;;;;;2.00;2.00;;;;;14.51;80.22;101018.56;4971910;28;8955;-67
2022/10/22 07:48:40;;;;;;;;;4.50;3.00;;;;;14.57;80.20;101023.09;4971824;28;9060;-65
2022/10/22 07:51:08;;;;;;;;;3.00;3.00;;;;;14.65;80.42;101023.91;4967615;28;8880;-65
2022/10/22 07:53:34;;;;;;;;;3.00;3.00;;;;;14.68;80.28;101031.63;4952653;28;8835;-65
2022/10/22 07:56:01;;;;;;;;;5.00;3.25;;;;;14.66;79.72;101034.53;4952725;28;8863;-66
2022/10/22 07:58:27;;;;;;;;;3.50;2.50;;;;;14.69;79.90;101033.28;4966896;28;8849;-66
2022/10/22 08:00:55;;;;;;;;;5.00;3.00;;;;;14.64;79.87;101043.94;4952085;28;8908;-65
2022/10/22 08:03:22;;;;;;;;;1.75;1.75;;;;;14.66;80.04;101044.53;4953544;28;8953;-66
2022/10/22 08:05:50;;;;;;;;;5.50;2.50;;;;;14.64;80.21;101050.19;4951975;28;8855;-66
2022/10/22 08:08:17;;;;;;;;;2.50;2.00;;;;;14.66;80.33;101053.50;4953395;28;8819;-66
2022/10/22 08:10:45;;;;;;;;;2.00;2.00;;;;;14.61;80.06;101057.91;4952014;28;8846;-65
2022/10/22 08:13:12;;;;;;;;;1.00;1.00;;;;;14.67;80.28;101055.16;4953574;28;8877;-66
2022/10/22 08:15:38;;;;;;;;;4.00;2.50;;;;;14.70;80.12;101059.31;4951834;28;8969;-65
2022/10/22 08:18:05;;;;;;;;;2.00;2.00;;;;;14.69;80.48;101061.19;4953346;28;8850;-65
2022/10/22 08:20:31;;;;;;;;;3.25;3.25;;;;;14.64;80.10;101061.03;4950871;28;9427;-66
2022/10/22 08:22:58;;;;;;;;;2.00;2.00;;;;;14.69;79.89;101065.78;4953190;28;9531;-66
2022/10/22 08:25:25;;;;;;;;;2.50;2.50;;;;;14.68;79.94;101067.66;4952171;28;8866;-65
2022/10/22 08:27:51;;;;;;;;;3.75;3.75;;;;;14.68;80.32;101064.97;4953157;28;8834;-65
2022/10/22 08:30:18;;;;;;;;;4.75;2.00;;;;;14.65;80.58;101072.69;4966245;28;8962;-66
2022/10/22 08:32:45;;;;;;;;;6.25;3.50;;;;;14.63;80.38;101061.25;4969842;28;8888;-66
2022/10/22 08:35:11;;;;;;;;;3.00;3.00;;;;;14.59;80.68;101068.97;4971259;28;8860;-66
2022/10/22 08:37:42;;;;;;;;;2.75;2.00;;;;;14.66;80.89;101071.63;4969934;28;8840;-65
2022/10/22 08:40:20;;;;;;;;;3.00;3.00;;;;;14.69;80.55;101074.75;4971027;28;8852;-66
2022/10/22 08:43:22;;;;;;;;;6.00;3.25;;;;;14.76;80.09;101082.84;4969825;28;8844;-66
2022/10/22 08:46:09;;;;;;;;;3.00;1.25;;;;;14.77;80.53;101084.50;4951985;28;8846;-65
2022/10/22 08:48:59;;;;;;;;;1.75;1.75;;;;;14.78;80.49;101086.16;4969732;28;9506;-65
2022/10/22 08:51:30;;;;;;;;;3.00;3.00;;;;;14.77;80.50;101089.94;4971084;28;8844;-66
2022/10/22 08:54:13;;;;;;;;;3.00;2.00;;;;;14.76;80.52;101099.94;4950761;28;8839;-66
2022/10/22 08:56:49;;;;;;;;;2.75;2.75;;;;;14.82;80.40;101109.91;4953113;28;8954;-66
2022/10/22 08:59:36;;;;;;;;;3.75;2.50;;;;;14.82;80.62;101098.22;4967282;28;8863;-65
2022/10/22 09:02:13;;;;;;;;;7.00;3.00;;;;;14.83;80.92;101108.88;4967326;28;8839;-67
2022/10/22 09:04:50;;;;;;;;;1.25;1.25;;;;;14.84;81.26;101110.53;4951453;28;8897;-67
2022/10/22 09:07:16;;;;;;;;;1.50;1.25;;;;;14.91;81.24;101115.06;4953022;28;8851;-66
2022/10/22 09:09:49;;;;;;;;;2.50;2.50;;;;;14.90;80.90;101119.66;4951664;28;8842;-65
2022/10/22 09:12:16;;;;;;;;;5.25;3.00;;;;;14.91;80.99;101115.94;4966279;28;8846;-66
2022/10/22 09:14:46;;;;;;;;;3.75;3.75;;;;;14.94;81.24;101126.31;4952110;28;8953;-66
2022/10/22 09:17:24;;;;;;;;;2.00;2.00;;;;;14.98;81.13;101132.16;4953014;28;8847;-66
2022/10/22 09:20:14;;;;;;;;;4.50;3.00;;;;;15.06;81.08;101138.13;4951596;28;8831;-65
2022/10/22 09:23:16;;;;;;;;;2.00;2.00;;;;;15.12;80.77;101136.47;4952933;28;8877;-65
2022/10/22 09:25:44;;;;;;;;;2.00;1.25;;;;;15.18;80.98;101138.28;4951643;28;9602;-65
2022/10/22 09:28:10;;;;;;;;;3.25;3.25;;;;;15.25;80.39;101146.41;4956435;28;8850;-66
2022/10/22 09:30:38;;;;;;;;;4.00;2.50;;;;;15.28;80.52;101141.38;4954730;28;8839;-65
2022/10/22 09:33:05;;;;;;;;;1.50;1.50;;;;;15.26;80.30;101142.63;4956013;28;8945;-66
2022/10/22 09:35:46;;;;;;;;;1.00;1.00;;;;;15.29;80.21;101148.44;4954945;28;8842;-66
2022/10/22 09:38:17;;;;;;;;;4.25;1.75;;;;;15.31;79.77;101150.94;4956295;28;8842;-66
2022/10/22 09:40:49;;;;;;;;;4.00;3.00;;;;;15.28;79.69;101167.66;4954720;28;8838;-66
2022/10/22 09:43:17;;;;;;;;;5.75;3.00;;;;;15.23;80.16;101159.31;4969468;28;8843;-66
2022/10/22 09:45:46;;;;;;;;;2.00;2.00;;;;;15.28;80.33;101152.22;4954794;28;8876;-66
2022/10/22 09:48:33;;;;;;;;;3.25;3.00;;;;;15.37;80.19;101155.50;4955988;28;8877;-66
2022/10/22 09:51:11;;;;;;;;;2.00;2.00;;;;;15.45;80.45;101149.00;4954546;28;8819;-66
2022/10/22 09:53:42;;;;;;;;;6.25;4.00;;;;;15.50;79.83;101166.25;4955912;28;8831;-65
2022/10/22 09:56:17;;;;;;;;;3.50;3.50;;;;;15.36;79.99;101162.00;4954563;28;8831;-65
2022/10/22 09:58:48;;;;;;;;;3.00;3.00;;;;;15.42;80.05;101158.38;4955855;28;8897;-65
2022/10/22 10:01:24;;;;;;;;;2.75;2.75;;;;;15.48;79.69;101148.56;4954372;28;8913;-65
2022/10/22 10:03:51;;;;;;;;;1.75;1.50;;;;;15.49;79.42;101159.19;4954314;28;8827;-66
2022/10/22 10:06:19;;;;;;;;;3.00;3.00;;;;;15.51;79.40;101173.34;4954086;28;8865;-66
2022/10/22 10:08:46;;;;;;;;;3.50;3.00;;;;;15.55;79.26;101169.13;4955159;28;8835;-66
2022/10/22 10:11:31;;;;;;;;;2.00;2.00;;;;;15.67;79.11;101171.19;4953767;28;8847;-66
2022/10/22 10:14:09;;;;;;;;;1.75;1.75;;;;;15.76;78.72;101188.91;4984712;28;9706;-65
2022/10/22 10:16:56;;;;;;;;;1.25;1.25;;;;;15.80;78.19;101188.22;4969700;28;9594;-65
2022/10/22 10:19:50;;;;;;;;;3.50;1.75;;;;;15.77;78.08;101194.09;4954074;28;8861;-66
2022/10/22 10:22:37;;;;;;;;;3.00;1.75;;;;;15.79;77.79;101204.72;4955329;28;9534;-65
2022/10/22 10:25:40;;;;;;;;;5.25;3.00;;;;;15.80;77.59;101203.69;4966875;28;8901;-66
2022/10/22 10:28:23;;;;;;;;;1.75;1.75;;;;;15.81;77.73;101205.34;4971634;28;9547;-66
2022/10/22 10:31:08;;;;;;;;;2.50;2.50;;;;;15.81;77.51;101208.06;4973026;28;8820;-66
2022/10/22 10:33:58;;;;;;;;;6.50;5.00;;;;;15.80;77.79;101209.94;4971598;28;8854;-65
2022/10/22 10:36:53;;;;;;;;;3.00;2.00;;;;;15.75;77.48;101214.34;4952344;28;8871;-65
2022/10/22 10:39:28;;;;;;;;;2.75;1.00;;;;;15.74;77.75;101226.25;4951408;28;8877;-65
2022/10/22 10:42:10;;;;;;;;;1.75;1.75;;;;;15.82;77.86;101226.81;4954649;28;8867;-64
2022/10/22 10:45:01;;;;;;;;;2.75;2.00;;;;;15.91;77.77;101226.56;4971463;28;9529;-65
2022/10/22 10:48:05;;;;;;;;;1.25;1.00;;;;;15.95;77.70;101222.34;4971411;28;8828;-66
2022/10/22 10:51:07;;;;;;;;;1.25;1.00;;;;;16.02;77.61;101225.84;4987272;28;8836;-63
2022/10/22 10:53:48;;;;;;;;;2.00;2.00;;;;;15.97;77.70;101226.53;4970921;28;8856;-64
2022/10/22 10:56:31;;;;;;;;;3.25;1.75;;;;;16.03;77.41;101227.50;4972697;28;8840;-66
2022/10/22 10:59:29;;;;;;;;;2.00;2.00;;;;;16.05;77.09;101237.13;4967432;28;9578;-65
2022/10/22 11:02:12;;;;;;;;;2.75;1.00;;;;;16.03;77.13;101232.94;4950230;28;8844;-65
2022/10/22 11:05:05;;;;;;;;;1.00;1.00;;;;;15.97;77.29;101236.56;4967838;28;8874;-65
2022/10/22 11:07:41;;;;;;;;;3.00;2.00;;;;;15.96;76.72;101241.16;4986852;23;9637;-65
2022/10/22 11:10:28;;;;;;;;;0.00;0.00;;;;;15.94;76.60;101243.25;4953154;28;9623;-67
2022/10/22 11:13:03;;;;;;;;;0.25;0.00;;;;;16.01;76.21;101254.06;4954301;28;8851;-66
2022/10/22 11:15:35;;;;;;;;;1.50;1.50;;;;;16.04;75.55;101246.31;4968210;28;8851;-68
2022/10/22 11:18:33;;;;;;;;;1.75;0.00;;;;;16.14;74.34;101245.81;4964558;28;8864;-68
2022/10/22 11:21:38;;;;;;;;;0.00;0.00;;;;;16.23;72.73;101247.19;4969049;28;8856;-67
2022/10/22 11:24:21;;;;;;;;;2.50;1.00;;;;;16.22;71.85;101250.16;4972496;28;8837;-67
2022/10/22 11:27:11;;;;;;;;;0.00;0.00;;;;;16.23;70.34;101251.78;4970585;28;9602;-66
2022/10/22 11:29:44;;;;;;;;;0.00;0.00;;;;;16.37;69.97;101247.09;4972007;28;8856;-65
2022/10/22 11:32:19;;;;;;;;;0.25;0.25;;;;;16.50;69.56;101253.22;4970648;28;8906;-66
2022/10/22 11:34:49;;;;;;;;;0.25;0.00;;;;;16.54;68.85;101261.78;4958808;28;8839;-65
2022/10/22 11:37:17;;;;;;;;;0.00;0.00;;;;;16.55;68.31;101261.53;4954069;28;8846;-68
2022/10/22 11:39:50;;;;;;;;;1.00;0.50;;;;;16.60;67.92;101258.16;4967603;28;8839;-68
2022/10/22 11:42:20;;;;;;;;;0.00;0.00;;;;;16.66;67.30;101273.56;4954064;28;8863;-68
2022/10/22 11:45:01;;;;;;;;;0.75;0.00;;;;;16.65;66.57;101263.78;4952952;28;8855;-68
2022/10/22 11:47:32;;;;;;;;;1.75;0.00;;;;;16.65;66.11;101269.19;4953955;28;8921;-68
2022/10/22 11:50:17;;;;;;;;;1.00;1.00;;;;;16.63;65.96;101265.84;4952246;28;8835;-66
2022/10/22 11:52:53;;;;;;;;;0.25;0.25;;;;;16.71;66.56;101262.84;4953770;28;9507;-68
2022/10/22 11:55:31;;;;;;;;;0.00;0.00;;;;;16.74;66.26;101273.31;4952847;28;8844;-65